createdAt,value
2022-10-21T00:00:57.253Z,100276.22
2022-10-21T00:03:25.652Z,100273.09
2022-10-21T00:05:52.861Z,100273.78
2022-10-21T00:08:20.435Z,100267.44
2022-10-21T00:10:51.563Z,100255.22
2022-10-21T00:13:19.192Z,100263.88
2022-10-21T00:15:48.676Z,100254.81
2022-10-21T00:18:15.033Z,100252.94
2022-10-21T00:20:41.489Z,100253.13
2022-10-21T00:23:07.941Z,100243.84
2022-10-21T00:25:36.628Z,100236.06
2022-10-21T00:28:03.059Z,100236.88
2022-10-21T00:30:32.234Z,100244.22
2022-10-21T00:33:03.494Z,100250.16
2022-10-21T00:35:33.355Z,100240.88
2022-10-21T00:38:02.092Z,100246.13
2022-10-21T00:40:28.624Z,100302.25
2022-10-21T00:42:55.028Z,100292.97
2022-10-21T00:45:30.610Z,100281.75
2022-10-21T00:48:18.993Z,100263.00
2022-10-21T00:51:00.758Z,100252.03
2022-10-21T00:53:28.087Z,100219.13
2022-10-21T00:55:59.887Z,100206.03
2022-10-21T00:58:30.071Z,100171.44
2022-10-21T01:00:59.047Z,100170.59
2022-10-21T01:03:26.488Z,100168.69
2022-10-21T01:05:54.400Z,100184.09
2022-10-21T01:08:20.880Z,100199.31
2022-10-21T01:10:50.026Z,100199.75
2022-10-21T01:13:28.241Z,100208.22
2022-10-21T01:16:19.553Z,100198.53
2022-10-21T01:18:46.070Z,100192.66
2022-10-21T01:21:40.027Z,100185.03
2022-10-21T01:24:35.335Z,100158.72
2022-10-21T01:27:21.009Z,100164.19
2022-10-21T01:30:09.045Z,100169.69
2022-10-21T01:32:56.859Z,100176.88
2022-10-21T01:35:35.941Z,100166.72
2022-10-21T01:38:34.458Z,100154.09
2022-10-21T01:41:13.473Z,100154.88
2022-10-21T01:44:02.245Z,100159.13
2022-10-21T01:46:59.229Z,100144.16
2022-10-21T01:49:48.017Z,100149.41
2022-10-21T01:52:15.625Z,100144.72
2022-10-21T01:54:48.802Z,100143.06
2022-10-21T01:57:18.606Z,100144.75
2022-10-21T01:59:48.118Z,100131.09
2022-10-21T02:02:16.419Z,100135.50
2022-10-21T02:04:50.112Z,100128.31
2022-10-21T02:07:16.576Z,100125.81
2022-10-21T02:09:45.259Z,100121.19
2022-10-21T02:12:12.173Z,100124.56
2022-10-21T02:14:47.375Z,100126.91
2022-10-21T02:17:17.811Z,100128.16
2022-10-21T02:19:46.566Z,100120.75
2022-10-21T02:22:20.396Z,100116.75
2022-10-21T02:24:59.873Z,100117.81
2022-10-21T02:27:26.596Z,100114.88
2022-10-21T02:29:59.534Z,100126.50
2022-10-21T02:32:35.729Z,100126.91
2022-10-21T02:35:21.753Z,100115.13
2022-10-21T02:37:57.549Z,100112.38
2022-10-21T02:40:45.712Z,100107.31
2022-10-21T02:43:25.788Z,100111.09
2022-10-21T02:45:58.733Z,100103.03
2022-10-21T02:48:25.237Z,100090.81
2022-10-21T02:50:54.027Z,100074.59
2022-10-21T02:53:20.438Z,100063.00
2022-10-21T02:55:46.838Z,100058.53
2022-10-21T02:58:13.357Z,100047.81
2022-10-21T03:00:39.836Z,100050.97
2022-10-21T03:03:06.252Z,100049.06
2022-10-21T03:05:32.677Z,100058.78
2022-10-21T03:07:59.216Z,100052.84
2022-10-21T03:10:25.615Z,100054.75
2022-10-21T03:12:52.119Z,100053.69
2022-10-21T03:15:18.597Z,100058.78
2022-10-21T03:17:44.998Z,100060.09
2022-10-21T03:20:11.448Z,100056.97
2022-10-21T03:22:37.878Z,100058.88
2022-10-21T03:25:07.106Z,100043.31
2022-10-21T03:27:33.608Z,100054.47
2022-10-21T03:30:00.233Z,100043.69
2022-10-21T03:32:26.651Z,100046.25
2022-10-21T03:34:55.390Z,100045.44
2022-10-21T03:37:24.254Z,100049.22
2022-10-21T03:39:52.909Z,100038.69
2022-10-21T03:42:19.422Z,100035.31
2022-10-21T03:44:48.258Z,100037.25
2022-10-21T03:47:17.163Z,100031.59
2022-10-21T03:49:45.907Z,100034.09
2022-10-21T03:52:17.156Z,100025.25
2022-10-21T03:54:43.658Z,100021.88
2022-10-21T03:57:10.165Z,100021.88
2022-10-21T03:59:36.576Z,100019.38
2022-10-21T04:02:03.255Z,100010.53
2022-10-21T04:04:29.709Z,100010.53
2022-10-21T04:06:56.101Z,100003.38
2022-10-21T04:09:24.673Z,100010.13
2022-10-21T04:11:51.289Z,100019.81
2022-10-21T04:14:17.682Z,100012.84
2022-10-21T04:16:44.052Z,100012.00
2022-10-21T04:19:16.956Z,100003.19
2022-10-21T04:21:43.581Z,100008.47
2022-10-21T04:24:10.053Z,100001.25
2022-10-21T04:26:36.545Z,99993.91
2022-10-21T04:29:03.100Z,99998.75
2022-10-21T04:31:32.267Z,99990.34
2022-10-21T04:33:58.912Z,99992.44
2022-10-21T04:36:27.559Z,99989.28
2022-10-21T04:38:54.113Z,99977.94
2022-10-21T04:41:20.690Z,99983.19
2022-10-21T04:43:47.186Z,99972.25
2022-10-21T04:46:15.350Z,99970.16
2022-10-21T04:48:41.903Z,99969.06
2022-10-21T04:51:08.513Z,99974.75
2022-10-21T04:53:35.256Z,99973.09
2022-10-21T04:56:04.488Z,99973.94
2022-10-21T04:58:31.426Z,99968.03
2022-10-21T05:00:57.850Z,99978.75
2022-10-21T05:03:29.258Z,99989.91
2022-10-21T05:05:55.677Z,99985.06
2022-10-21T05:08:22.455Z,99994.97
2022-10-21T05:10:49.217Z,99988.25
2022-10-21T05:13:15.647Z,99983.81
2022-10-21T05:15:42.084Z,99989.03
2022-10-21T05:18:10.690Z,99986.47
2022-10-21T05:20:39.478Z,99975.53
2022-10-21T05:23:05.870Z,99978.47
2022-10-21T05:25:34.689Z,99982.84
2022-10-21T05:28:01.235Z,99980.78
2022-10-21T05:30:28.009Z,99984.75
2022-10-21T05:32:54.630Z,99982.19
2022-10-21T05:35:23.294Z,99975.88
2022-10-21T05:37:49.661Z,99979.03
2022-10-21T05:40:18.432Z,99979.19
2022-10-21T05:42:45.607Z,99973.47
2022-10-21T05:45:14.641Z,99972.88
2022-10-21T05:47:41.500Z,99981.47
2022-10-21T05:50:10.107Z,99981.47
2022-10-21T05:52:39.333Z,99981.47
2022-10-21T05:55:07.129Z,99981.63
2022-10-21T05:57:35.711Z,99977.44
2022-10-21T06:00:03.249Z,99964.16
2022-10-21T06:02:29.628Z,99969.41
2022-10-21T06:04:56.181Z,99972.56
2022-10-21T06:07:22.556Z,99976.34
2022-10-21T06:09:48.994Z,99988.34
2022-10-21T06:12:15.472Z,99968.94
2022-10-21T06:14:41.901Z,99975.03
2022-10-21T06:17:08.611Z,99977.16
2022-10-21T06:19:35.025Z,99974.19
2022-10-21T06:22:01.392Z,99975.66
2022-10-21T06:24:27.832Z,99981.97
2022-10-21T06:26:54.164Z,99984.47
2022-10-21T06:29:20.654Z,99989.09
2022-10-21T06:31:47.082Z,99986.53
2022-10-21T06:34:13.566Z,99992.25
2022-10-21T06:36:40.071Z,99994.31
2022-10-21T06:39:10.044Z,100000.41
2022-10-21T06:41:36.405Z,99996.63
2022-10-21T06:44:05.577Z,99999.97
2022-10-21T06:46:32.034Z,100002.00
2022-10-21T06:48:58.389Z,100008.78
2022-10-21T06:51:25.078Z,100006.88
2022-10-21T06:53:54.316Z,100010.00
2022-10-21T06:56:21.520Z,100009.16
2022-10-21T06:58:49.305Z,100012.72
2022-10-21T07:01:33.540Z,100017.38
2022-10-21T07:04:01.643Z,100030.47
2022-10-21T07:06:28.167Z,100037.41
2022-10-21T07:08:58.977Z,100047.34
2022-10-21T07:11:28.875Z,100044.38
2022-10-21T07:13:55.591Z,100044.16
2022-10-21T07:16:27.474Z,100043.31
2022-10-21T07:18:55.223Z,100047.94
2022-10-21T07:21:23.618Z,100042.03
2022-10-21T07:23:51.334Z,100045.63
2022-10-21T07:26:19.494Z,100042.63
2022-10-21T07:28:48.793Z,100041.34
2022-10-21T07:31:23.076Z,100037.34
2022-10-21T07:33:49.612Z,100037.72
2022-10-21T07:36:22.218Z,100036.44
2022-10-21T07:38:50.593Z,100038.50
2022-10-21T07:41:22.887Z,100045.25
2022-10-21T07:43:50.142Z,100042.69
2022-10-21T07:46:18.136Z,100040.59
2022-10-21T07:48:47.562Z,100039.97
2022-10-21T07:51:19.283Z,100045.63
2022-10-21T07:53:46.252Z,100045.63
2022-10-21T07:56:16.079Z,100035.09
2022-10-21T07:58:43.962Z,100046.22
2022-10-21T08:01:11.692Z,100052.97
2022-10-21T08:03:38.564Z,100061.81
2022-10-21T08:06:06.684Z,100056.94
2022-10-21T08:08:36.234Z,100061.16
2022-10-21T08:11:05.930Z,100077.63
2022-10-21T08:13:32.595Z,100069.16
2022-10-21T08:15:59.372Z,100078.44
2022-10-21T08:18:26.857Z,100080.97
2022-10-21T08:20:54.334Z,100067.84
2022-10-21T08:23:22.562Z,100063.00
2022-10-21T08:26:00.790Z,100057.97
2022-10-21T08:28:29.018Z,100058.19
2022-10-21T08:31:03.875Z,100067.47
2022-10-21T08:33:30.315Z,100079.69
2022-10-21T08:35:56.758Z,100071.63
2022-10-21T08:38:23.271Z,100070.31
2022-10-21T08:40:54.937Z,100064.41
2022-10-21T08:43:28.488Z,100066.06
2022-10-21T08:46:18.057Z,100056.97
2022-10-21T08:48:52.356Z,100056.31
2022-10-21T08:52:10.865Z,100069.38
2022-10-21T08:54:44.083Z,100065.56
2022-10-21T08:57:11.820Z,100077.63
2022-10-21T08:59:42.093Z,100072.34
2022-10-21T09:02:16.951Z,100067.28
2022-10-21T09:04:43.416Z,100054.25
2022-10-21T09:07:26.483Z,100062.88
2022-10-21T09:10:03.716Z,100064.34
2022-10-21T09:12:41.678Z,100065.41
2022-10-21T09:15:32.977Z,100078.22
2022-10-21T09:18:20.081Z,100074.41
2022-10-21T09:20:56.703Z,100071.66
2022-10-21T09:23:30.050Z,100076.88
2022-10-21T09:26:01.268Z,100087.41
2022-10-21T09:28:28.919Z,100081.63
2022-10-21T09:30:57.130Z,100092.63
2022-10-21T09:33:29.763Z,100098.03
2022-10-21T09:36:05.657Z,100089.97
2022-10-21T09:38:56.901Z,100100.28
2022-10-21T09:41:29.718Z,100106.84
2022-10-21T09:43:56.266Z,100104.03
2022-10-21T09:46:22.937Z,100111.00
2022-10-21T09:51:45.347Z,100113.13
2022-10-21T09:54:22.643Z,100103.19
2022-10-21T09:57:00.889Z,100099.63
2022-10-21T09:59:33.265Z,100104.28
2022-10-21T10:02:14.271Z,100108.47
2022-10-21T10:04:40.735Z,100109.72
2022-10-21T10:07:27.891Z,100118.78
2022-10-21T10:09:54.649Z,100119.84
2022-10-21T10:12:26.111Z,100113.50
2022-10-21T10:14:55.717Z,100117.94
2022-10-21T10:17:31.357Z,100120.44
2022-10-21T10:20:03.868Z,100121.94
2022-10-21T10:22:41.928Z,100127.34
2022-10-21T10:25:08.727Z,100125.81
2022-10-21T10:27:36.133Z,100126.19
2022-10-21T10:30:02.880Z,100132.72
2022-10-21T10:32:32.298Z,100135.38
2022-10-21T10:35:03.200Z,100142.94
2022-10-21T10:37:34.898Z,100152.84
2022-10-21T10:40:07.234Z,100144.38
2022-10-21T10:42:47.711Z,100147.06
2022-10-21T10:45:19.716Z,100160.34
2022-10-21T10:47:56.270Z,100157.97
2022-10-21T10:50:37.636Z,100151.78
2022-10-21T10:53:23.954Z,100146.97
2022-10-21T10:56:01.612Z,100148.47
2022-10-21T10:58:32.133Z,100142.28
2022-10-21T11:01:02.436Z,100145.09
2022-10-21T11:03:55.870Z,100153.56
2022-10-21T11:06:46.009Z,100141.56
2022-10-21T11:09:16.042Z,100142.53
2022-10-21T11:11:48.614Z,100141.16
2022-10-21T11:14:22.525Z,100140.00
2022-10-21T11:17:05.274Z,100138.56
2022-10-21T11:19:43.842Z,100133.69
2022-10-21T11:22:20.938Z,100131.31
2022-10-21T11:25:02.469Z,100134.81
2022-10-21T11:27:56.568Z,100126.25
2022-10-21T11:30:41.431Z,100125.56
2022-10-21T11:33:23.063Z,100122.94
2022-10-21T11:36:04.054Z,100123.91
2022-10-21T11:38:33.426Z,100130.41
2022-10-21T11:41:08.012Z,100127.97
2022-10-21T11:43:52.600Z,100132.78
2022-10-21T11:46:25.038Z,100133.38
2022-10-21T11:49:04.091Z,100131.00
2022-10-21T11:51:48.215Z,100132.91
2022-10-21T11:54:33.589Z,100131.59
2022-10-21T11:57:33.260Z,100131.50
2022-10-21T12:00:21.778Z,100126.81
2022-10-21T12:03:09.440Z,100135.31
2022-10-21T12:05:43.018Z,100131.13
2022-10-21T12:08:12.553Z,100131.50
2022-10-21T12:11:05.135Z,100124.19
2022-10-21T12:13:43.154Z,100125.13
2022-10-21T12:16:21.885Z,100129.69
2022-10-21T12:19:05.655Z,100125.28
2022-10-21T12:21:37.141Z,100127.38
2022-10-21T12:24:47.448Z,100130.41
2022-10-21T12:27:19.766Z,100136.38
2022-10-21T12:30:06.808Z,100138.28
2022-10-21T12:32:51.615Z,100136.13
2022-10-21T12:38:56.303Z,100133.28
2022-10-21T12:41:38.418Z,100132.59
2022-10-21T12:44:15.165Z,100125.28
2022-10-21T12:46:44.865Z,100128.03
2022-10-21T12:49:32.794Z,100128.75
2022-10-21T12:52:05.042Z,100130.31
2022-10-21T12:54:44.513Z,100125.50
2022-10-21T12:57:23.955Z,100122.03
2022-10-21T12:59:50.395Z,100119.16
2022-10-21T13:02:29.965Z,100107.91
2022-10-21T13:04:57.596Z,100102.97
2022-10-21T13:07:30.102Z,100095.44
2022-10-21T13:09:59.423Z,100106.47
2022-10-21T13:12:27.683Z,100109.81
2022-10-21T13:15:23.256Z,100101.31
2022-10-21T13:17:54.615Z,100107.63
2022-10-21T13:20:44.920Z,100111.25
2022-10-21T13:23:33.035Z,100101.69
2022-10-21T13:26:12.494Z,100103.22
2022-10-21T13:28:39.012Z,100098.19
2022-10-21T13:31:07.830Z,100094.47
2022-10-21T13:33:38.075Z,100093.78
2022-10-21T13:36:14.429Z,100097.69
2022-10-21T13:38:51.453Z,100091.38
2022-10-21T13:41:29.782Z,100098.53
2022-10-21T13:44:06.413Z,100104.69
2022-10-21T13:46:40.689Z,100104.06
2022-10-21T13:49:27.100Z,100116.06
2022-10-21T13:51:53.586Z,100115.34
2022-10-21T13:54:22.575Z,100111.25
2022-10-21T13:56:51.462Z,100114.25
2022-10-21T13:59:29.796Z,100104.44
2022-10-21T14:01:57.888Z,100105.25
2022-10-21T14:04:26.857Z,100099.63
2022-10-21T14:07:03.759Z,100107.28
2022-10-21T14:09:54.993Z,100100.22
2022-10-21T14:12:46.363Z,100099.16
2022-10-21T14:15:19.494Z,100099.16
2022-10-21T14:17:55.234Z,100105.50
2022-10-21T14:20:33.716Z,100104.06
2022-10-21T14:23:05.494Z,100091.72
2022-10-21T14:25:37.522Z,100079.00
2022-10-21T14:28:05.058Z,100085.59
2022-10-21T14:30:37.143Z,100072.78
2022-10-21T14:33:06.255Z,100071.59
2022-10-21T14:35:32.781Z,100067.41
2022-10-21T14:38:04.539Z,100066.78
2022-10-21T14:40:43.822Z,100074.69
2022-10-21T14:43:12.956Z,100068.81
2022-10-21T14:45:45.789Z,100078.16
2022-10-21T14:48:28.986Z,100077.22
2022-10-21T14:51:02.266Z,100063.91
2022-10-21T14:53:38.207Z,100067.38
2022-10-21T14:56:07.081Z,100063.19
2022-10-21T14:58:36.851Z,100070.47
2022-10-21T15:01:21.496Z,100076.47
2022-10-21T15:04:03.570Z,100067.22
2022-10-21T15:06:31.480Z,100076.22
2022-10-21T15:08:58.008Z,100073.31
2022-10-21T15:11:28.775Z,100069.38
2022-10-21T15:14:28.494Z,100066.84
2022-10-21T15:17:02.943Z,100059.53
2022-10-21T15:19:41.558Z,100064.03
2022-10-21T15:22:22.251Z,100070.25
2022-10-21T15:24:49.637Z,100074.06
2022-10-21T15:27:29.549Z,100078.34
2022-10-21T15:30:34.949Z,100077.16
2022-10-21T15:33:06.413Z,100081.44
2022-10-21T15:35:32.761Z,100082.75
2022-10-21T15:37:59.127Z,100088.94
2022-10-21T15:40:25.555Z,100086.88
2022-10-21T15:42:56.095Z,100090.94
2022-10-21T15:45:23.635Z,100097.41
2022-10-21T15:47:55.359Z,100106.94
2022-10-21T15:50:26.728Z,100115.19
2022-10-21T15:52:53.594Z,100110.16
2022-10-21T15:55:20.089Z,100106.81
2022-10-21T15:57:46.540Z,100098.19
2022-10-21T16:00:21.721Z,100097.16
2022-10-21T16:02:51.511Z,100087.69
2022-10-21T16:05:22.862Z,100078.84
2022-10-21T16:07:49.547Z,100079.53
2022-10-21T16:10:19.116Z,100070.66
2022-10-21T16:12:45.835Z,100066.47
2022-10-21T16:15:12.881Z,100072.66
2022-10-21T16:17:43.636Z,100068.25
2022-10-21T16:20:25.870Z,100069.16
2022-10-21T16:22:52.626Z,100073.00
2022-10-21T16:25:19.787Z,100075.13
2022-10-21T16:27:55.818Z,100071.31
2022-10-21T16:30:27.376Z,100072.06
2022-10-21T16:32:54.245Z,100065.34
2022-10-21T16:35:21.506Z,100072.75
2022-10-21T16:37:49.015Z,100068.56
2022-10-21T16:40:23.072Z,100079.34
2022-10-21T16:42:50.839Z,100083.34
2022-10-21T16:45:19.033Z,100075.75
2022-10-21T16:47:51.099Z,100085.31
2022-10-21T16:50:46.032Z,100090.16
2022-10-21T16:53:16.505Z,100089.34
2022-10-21T16:55:43.348Z,100091.47
2022-10-21T16:58:09.923Z,100089.41
2022-10-21T17:00:36.493Z,100090.91
2022-10-21T17:03:03.349Z,100092.22
2022-10-21T17:05:30.026Z,100097.34
2022-10-21T17:07:58.483Z,100100.06
2022-10-21T17:10:24.993Z,100097.13
2022-10-21T17:12:57.147Z,100091.09
2022-10-21T17:15:23.582Z,100093.63
2022-10-21T17:17:49.953Z,100087.97
2022-10-21T17:20:16.436Z,100085.03
2022-10-21T17:22:42.966Z,100084.06
2022-10-21T17:25:15.004Z,100083.81
2022-10-21T17:27:43.426Z,100086.81
2022-10-21T17:30:11.515Z,100091.06
2022-10-21T17:32:39.827Z,100095.94
2022-10-21T17:35:14.412Z,100080.53
2022-10-21T17:37:41.063Z,100088.59
2022-10-21T17:40:08.657Z,100070.69
2022-10-21T17:42:35.124Z,100077.06
2022-10-21T17:45:03.792Z,100064.34
2022-10-21T17:47:30.549Z,100066.91
2022-10-21T17:49:59.473Z,100066.13
2022-10-21T17:52:30.464Z,100074.38
2022-10-21T17:54:56.795Z,100078.81
2022-10-21T17:57:25.936Z,100069.53
2022-10-21T17:59:53.593Z,100075.50
2022-10-21T18:02:20.471Z,100077.25
2022-10-21T18:04:49.171Z,100086.34
2022-10-21T18:07:17.891Z,100087.25
2022-10-21T18:09:46.595Z,100094.63
2022-10-21T18:12:14.102Z,100099.09
2022-10-21T18:14:40.673Z,100101.06
2022-10-21T18:17:08.397Z,100100.00
2022-10-21T18:19:35.003Z,100088.44
2022-10-21T18:22:01.830Z,100084.25
2022-10-21T18:24:30.975Z,100076.19
2022-10-21T18:26:57.423Z,100081.50
2022-10-21T18:29:23.878Z,100088.03
2022-10-21T18:31:56.400Z,100085.13
2022-10-21T18:34:22.817Z,100088.47
2022-10-21T18:39:19.007Z,100092.50
2022-10-21T18:41:45.938Z,100089.78
2022-10-21T18:44:14.168Z,100098.66
2022-10-21T18:46:42.374Z,100088.94
2022-10-21T18:49:12.575Z,100088.53
2022-10-21T18:51:41.393Z,100093.19
2022-10-21T18:54:07.809Z,100083.91
2022-10-21T18:56:34.337Z,100081.63
2022-10-21T18:59:00.708Z,100090.47
2022-10-21T19:01:27.200Z,100088.59
2022-10-21T19:03:58.604Z,100104.63
2022-10-21T19:06:31.222Z,100101.88
2022-10-21T19:08:58.181Z,100096.00
2022-10-21T19:11:24.715Z,100109.09
2022-10-21T19:13:51.210Z,100129.53
2022-10-21T19:16:22.470Z,100131.22
2022-10-21T19:18:51.670Z,100131.66
2022-10-21T19:21:19.832Z,100123.66
2022-10-21T19:23:46.415Z,100124.50
2022-10-21T19:26:13.496Z,100122.81
2022-10-21T19:28:40.729Z,100119.84
2022-10-21T19:31:08.528Z,100116.91
2022-10-21T19:33:35.037Z,100111.84
2022-10-21T19:36:02.664Z,100113.28
2022-10-21T19:38:44.926Z,100111.84
2022-10-21T19:41:17.106Z,100106.78
2022-10-21T19:43:46.206Z,100115.22
2022-10-21T19:46:22.194Z,100117.72
2022-10-21T19:48:51.354Z,100118.97
2022-10-21T19:51:22.905Z,100118.28
2022-10-21T19:53:51.016Z,100126.94
2022-10-21T19:56:23.897Z,100122.72
2022-10-21T19:58:53.549Z,100115.97
2022-10-21T20:01:22.673Z,100121.84
2022-10-21T20:03:50.224Z,100117.41
2022-10-21T20:06:26.781Z,100118.25
2022-10-21T20:08:55.286Z,100120.09
2022-10-21T20:11:22.114Z,100118.66
2022-10-21T20:13:51.827Z,100120.97
2022-10-21T20:16:21.165Z,100112.13
2022-10-21T20:18:48.158Z,100112.72
2022-10-21T20:21:14.758Z,100115.47
2022-10-21T20:23:41.215Z,100126.25
2022-10-21T20:26:08.780Z,100128.59
2022-10-21T20:28:35.873Z,100149.06
2022-10-21T20:31:30.018Z,100153.53
2022-10-21T20:33:56.645Z,100157.34
2022-10-21T20:36:26.234Z,100162.00
2022-10-21T20:38:54.426Z,100162.03
2022-10-21T20:41:25.784Z,100159.50
2022-10-21T20:43:54.029Z,100168.16
2022-10-21T20:46:24.742Z,100160.50
2022-10-21T20:48:55.075Z,100153.53
2022-10-21T20:51:28.969Z,100149.75
2022-10-21T20:54:01.071Z,100153.97
2022-10-21T20:56:31.782Z,100157.34
2022-10-21T20:59:04.172Z,100153.53
2022-10-21T21:01:35.991Z,100153.28
2022-10-21T21:04:05.952Z,100151.44
2022-10-21T21:06:39.517Z,100147.81
2022-10-21T21:11:52.773Z,100133.69
2022-10-21T21:14:19.389Z,100135.34
2022-10-21T21:16:45.776Z,100126.09
2022-10-21T21:19:13.545Z,100139.63
2022-10-21T21:21:40.419Z,100143.56
2022-10-21T21:24:09.566Z,100153.53
2022-10-21T21:26:37.915Z,100168.31
2022-10-21T21:29:06.309Z,100170.66
2022-10-21T21:31:33.749Z,100178.03
2022-10-21T21:34:00.227Z,100174.22
2022-10-21T21:36:26.737Z,100175.72
2022-10-21T21:38:55.715Z,100160.72
2022-10-21T21:41:24.183Z,100157.53
2022-10-21T21:43:56.504Z,100160.94
2022-10-21T21:46:25.337Z,100178.22
2022-10-21T21:48:59.597Z,100161.34
2022-10-21T21:51:30.159Z,100170.16
2022-10-21T21:53:57.609Z,100182.22
2022-10-21T21:56:25.670Z,100180.94
2022-10-21T21:58:54.902Z,100156.72
2022-10-21T22:01:26.571Z,100166.00
2022-10-21T22:03:58.452Z,100156.91
2022-10-21T22:06:28.350Z,100154.38
2022-10-21T22:08:55.679Z,100151.03
2022-10-21T22:11:24.985Z,100149.75
2022-10-21T22:13:51.741Z,100137.53
2022-10-21T22:16:19.846Z,100121.25
2022-10-21T22:18:46.289Z,100116.59
2022-10-21T22:21:16.192Z,100113.41
2022-10-21T22:23:45.309Z,100105.00
2022-10-21T22:26:13.269Z,100149.25
2022-10-21T22:28:40.844Z,100155.16
2022-10-21T22:31:15.036Z,100141.66
2022-10-21T22:36:10.153Z,100158.91
2022-10-21T22:38:36.576Z,100150.72
2022-10-21T22:41:07.160Z,100156.88
2022-10-21T22:43:36.267Z,100145.47
2022-10-21T22:46:15.390Z,100156.66
2022-10-21T22:48:49.198Z,100164.66
2022-10-21T22:51:15.591Z,100158.78
2022-10-21T22:53:42.137Z,100158.16
2022-10-21T22:56:08.811Z,100167.44
2022-10-21T22:58:35.445Z,100167.66
2022-10-21T23:01:06.882Z,100160.06
2022-10-21T23:03:36.075Z,100156.69
2022-10-21T23:06:05.126Z,100152.84
2022-10-21T23:08:36.409Z,100146.75
2022-10-21T23:11:02.844Z,100149.06
2022-10-21T23:13:31.550Z,100161.75
2022-10-21T23:15:57.954Z,100173.34
2022-10-21T23:18:24.355Z,100184.53
2022-10-21T23:20:53.696Z,100182.59
2022-10-21T23:23:20.204Z,100199.91
2022-10-21T23:25:46.618Z,100213.03
2022-10-21T23:28:13.390Z,100209.63
2022-10-21T23:30:40.519Z,100212.38
2022-10-21T23:33:09.591Z,100206.88
2022-10-21T23:35:36.009Z,100201.00
2022-10-21T23:38:02.494Z,100195.69
2022-10-21T23:40:28.954Z,100218.06
2022-10-21T23:42:55.353Z,100216.16
2022-10-21T23:45:24.081Z,100218.28
2022-10-21T23:47:51.394Z,100217.44
2022-10-21T23:50:17.879Z,100209.63
2022-10-21T23:52:44.332Z,100212.81
2022-10-21T23:55:10.870Z,100212.63
2022-10-21T23:57:37.736Z,100206.72
